sensor_id;sensor_type;location;lat;lon;timestamp;P1;durP1;ratioP1;P2;durP2;ratioP2
19664;SDS011;9980;51.020;7.772;2023-09-19T00:00:46;2.80;;;1.70;;
19664;SDS011;9980;51.020;7.772;2023-09-19T00:03:15;1.93;;;1.70;;
19664;SDS011;9980;51.020;7.772;2023-09-19T00:05:43;3.57;;;1.70;;
19664;SDS011;9980;51.020;7.772;2023-09-19T00:08:10;3.27;;;1.60;;
19664;SDS011;9980;51.020;7.772;2023-09-19T00:10:40;2.20;;;1.53;;
19664;SDS011;9980;51.020;7.772;2023-09-19T00:13:08;3.77;;;2.00;;
19664;SDS011;9980;51.020;7.772;2023-09-19T00:15:42;2.43;;;1.87;;
19664;SDS011;9980;51.020;7.772;2023-09-19T00:18:17;2.13;;;1.93;;
19664;SDS011;9980;51.020;7.772;2023-09-19T00:20:47;2.70;;;1.80;;
19664;SDS011;9980;51.020;7.772;2023-09-19T00:23:18;2.30;;;2.07;;
19664;SDS011;9980;51.020;7.772;2023-09-19T00:25:46;1.87;;;1.77;;
19664;SDS011;9980;51.020;7.772;2023-09-19T00:28:14;2.27;;;2.00;;
19664;SDS011;9980;51.020;7.772;2023-09-19T00:30:44;2.03;;;1.83;;
19664;SDS011;9980;51.020;7.772;2023-09-19T00:33:17;2.97;;;1.90;;
19664;SDS011;9980;51.020;7.772;2023-09-19T00:35:49;5.03;;;2.40;;
19664;SDS011;9980;51.020;7.772;2023-09-19T00:38:19;2.33;;;1.70;;
19664;SDS011;9980;51.020;7.772;2023-09-19T00:40:49;2.53;;;1.90;;
19664;SDS011;9980;51.020;7.772;2023-09-19T00:43:21;2.10;;;1.73;;
19664;SDS011;9980;51.020;7.772;2023-09-19T00:45:52;4.13;;;1.80;;
19664;SDS011;9980;51.020;7.772;2023-09-19T00:48:22;4.20;;;2.00;;
19664;SDS011;9980;51.020;7.772;2023-09-19T00:50:52;3.93;;;1.70;;
19664;SDS011;9980;51.020;7.772;2023-09-19T00:53:20;2.93;;;1.90;;
19664;SDS011;9980;51.020;7.772;2023-09-19T00:55:50;3.77;;;1.80;;
19664;SDS011;9980;51.020;7.772;2023-09-19T00:58:18;3.70;;;2.13;;
19664;SDS011;9980;51.020;7.772;2023-09-19T01:00:47;2.10;;;1.60;;
19664;SDS011;9980;51.020;7.772;2023-09-19T01:03:16;6.13;;;2.37;;
19664;SDS011;9980;51.020;7.772;2023-09-19T01:05:44;2.03;;;1.63;;
19664;SDS011;9980;51.020;7.772;2023-09-19T01:08:12;5.10;;;1.93;;
19664;SDS011;9980;51.020;7.772;2023-09-19T01:11:03;2.83;;;2.07;;
19664;SDS011;9980;51.020;7.772;2023-09-19T01:13:58;3.43;;;1.87;;
19664;SDS011;9980;51.020;7.772;2023-09-19T01:16:50;2.53;;;1.60;;
19664;SDS011;9980;51.020;7.772;2023-09-19T01:19:57;7.03;;;2.43;;
19664;SDS011;9980;51.020;7.772;2023-09-19T01:22:48;2.73;;;1.93;;
19664;SDS011;9980;51.020;7.772;2023-09-19T01:28:34;3.10;;;1.60;;
19664;SDS011;9980;51.020;7.772;2023-09-19T01:31:09;3.40;;;1.73;;
19664;SDS011;9980;51.020;7.772;2023-09-19T01:33:57;4.83;;;1.83;;
19664;SDS011;9980;51.020;7.772;2023-09-19T01:36:28;2.27;;;2.07;;
19664;SDS011;9980;51.020;7.772;2023-09-19T01:39:00;2.30;;;1.67;;
19664;SDS011;9980;51.020;7.772;2023-09-19T01:41:43;2.50;;;1.70;;
19664;SDS011;9980;51.020;7.772;2023-09-19T01:47:33;3.37;;;1.80;;
19664;SDS011;9980;51.020;7.772;2023-09-19T01:53:05;3.60;;;1.80;;
19664;SDS011;9980;51.020;7.772;2023-09-19T01:55:47;5.07;;;2.20;;
19664;SDS011;9980;51.020;7.772;2023-09-19T01:58:18;4.57;;;1.70;;
19664;SDS011;9980;51.020;7.772;2023-09-19T02:01:14;2.80;;;1.90;;
19664;SDS011;9980;51.020;7.772;2023-09-19T02:03:46;2.47;;;1.77;;
19664;SDS011;9980;51.020;7.772;2023-09-19T02:06:16;2.53;;;1.70;;
19664;SDS011;9980;51.020;7.772;2023-09-19T02:08:45;5.63;;;2.30;;
19664;SDS011;9980;51.020;7.772;2023-09-19T02:11:13;3.20;;;1.97;;
19664;SDS011;9980;51.020;7.772;2023-09-19T02:13:41;2.93;;;1.80;;
19664;SDS011;9980;51.020;7.772;2023-09-19T02:16:10;2.30;;;1.80;;
19664;SDS011;9980;51.020;7.772;2023-09-19T02:18:39;2.93;;;1.70;;
19664;SDS011;9980;51.020;7.772;2023-09-19T02:21:06;4.67;;;1.97;;
19664;SDS011;9980;51.020;7.772;2023-09-19T02:23:33;3.10;;;1.83;;
19664;SDS011;9980;51.020;7.772;2023-09-19T02:26:00;5.30;;;2.17;;
19664;SDS011;9980;51.020;7.772;2023-09-19T02:28:27;6.13;;;2.40;;
19664;SDS011;9980;51.020;7.772;2023-09-19T02:30:58;3.83;;;2.10;;
19664;SDS011;9980;51.020;7.772;2023-09-19T02:33:26;5.47;;;2.20;;
19664;SDS011;9980;51.020;7.772;2023-09-19T02:35:56;3.63;;;1.90;;
19664;SDS011;9980;51.020;7.772;2023-09-19T02:38:30;3.23;;;1.80;;
19664;SDS011;9980;51.020;7.772;2023-09-19T02:40:57;4.37;;;1.80;;
19664;SDS011;9980;51.020;7.772;2023-09-19T02:43:24;4.57;;;2.03;;
19664;SDS011;9980;51.020;7.772;2023-09-19T02:45:51;6.17;;;1.80;;
19664;SDS011;9980;51.020;7.772;2023-09-19T02:48:21;3.97;;;2.20;;
19664;SDS011;9980;51.020;7.772;2023-09-19T02:50:51;4.27;;;1.53;;
19664;SDS011;9980;51.020;7.772;2023-09-19T02:53:19;9.30;;;1.90;;
19664;SDS011;9980;51.020;7.772;2023-09-19T02:55:46;4.20;;;2.10;;
19664;SDS011;9980;51.020;7.772;2023-09-19T02:58:14;4.83;;;1.73;;
19664;SDS011;9980;51.020;7.772;2023-09-19T03:00:42;6.20;;;2.30;;
19664;SDS011;9980;51.020;7.772;2023-09-19T03:03:13;4.43;;;2.43;;
19664;SDS011;9980;51.020;7.772;2023-09-19T03:05:41;3.93;;;2.23;;
19664;SDS011;9980;51.020;7.772;2023-09-19T03:08:14;2.30;;;1.77;;
19664;SDS011;9980;51.020;7.772;2023-09-19T03:10:45;5.80;;;2.13;;
19664;SDS011;9980;51.020;7.772;2023-09-19T03:13:14;4.90;;;2.10;;
19664;SDS011;9980;51.020;7.772;2023-09-19T03:15:42;4.83;;;2.17;;
19664;SDS011;9980;51.020;7.772;2023-09-19T03:18:16;5.57;;;2.20;;
19664;SDS011;9980;51.020;7.772;2023-09-19T03:20:51;4.37;;;2.20;;
19664;SDS011;9980;51.020;7.772;2023-09-19T03:23:22;5.13;;;2.30;;
19664;SDS011;9980;51.020;7.772;2023-09-19T03:25:49;5.37;;;2.33;;
19664;SDS011;9980;51.020;7.772;2023-09-19T03:28:16;5.17;;;2.20;;
19664;SDS011;9980;51.020;7.772;2023-09-19T03:30:44;4.83;;;2.27;;
19664;SDS011;9980;51.020;7.772;2023-09-19T03:33:11;4.37;;;2.33;;
19664;SDS011;9980;51.020;7.772;2023-09-19T03:35:39;5.10;;;2.07;;
19664;SDS011;9980;51.020;7.772;2023-09-19T03:38:06;6.97;;;2.23;;
19664;SDS011;9980;51.020;7.772;2023-09-19T03:40:33;4.63;;;2.23;;
19664;SDS011;9980;51.020;7.772;2023-09-19T03:43:00;3.40;;;2.40;;
19664;SDS011;9980;51.020;7.772;2023-09-19T03:45:28;4.47;;;2.60;;
19664;SDS011;9980;51.020;7.772;2023-09-19T03:47:55;4.73;;;1.80;;
19664;SDS011;9980;51.020;7.772;2023-09-19T03:50:23;5.50;;;2.00;;
19664;SDS011;9980;51.020;7.772;2023-09-19T03:52:55;9.30;;;2.90;;
19664;SDS011;9980;51.020;7.772;2023-09-19T03:55:23;4.70;;;2.20;;
19664;SDS011;9980;51.020;7.772;2023-09-19T03:57:50;4.67;;;2.53;;
19664;SDS011;9980;51.020;7.772;2023-09-19T04:00:17;7.07;;;2.53;;
19664;SDS011;9980;51.020;7.772;2023-09-19T04:02:48;7.90;;;2.50;;
19664;SDS011;9980;51.020;7.772;2023-09-19T04:05:15;7.20;;;2.63;;
19664;SDS011;9980;51.020;7.772;2023-09-19T04:07:44;4.33;;;2.53;;
19664;SDS011;9980;51.020;7.772;2023-09-19T04:10:12;6.60;;;2.57;;
19664;SDS011;9980;51.020;7.772;2023-09-19T04:12:40;6.03;;;2.17;;
19664;SDS011;9980;51.020;7.772;2023-09-19T04:15:17;5.80;;;2.27;;
19664;SDS011;9980;51.020;7.772;2023-09-19T04:17:43;8.23;;;2.10;;
19664;SDS011;9980;51.020;7.772;2023-09-19T04:20:11;4.40;;;2.20;;
19664;SDS011;9980;51.020;7.772;2023-09-19T04:22:41;5.33;;;2.50;;
19664;SDS011;9980;51.020;7.772;2023-09-19T04:25:08;6.57;;;2.50;;
19664;SDS011;9980;51.020;7.772;2023-09-19T04:27:35;7.00;;;2.67;;
19664;SDS011;9980;51.020;7.772;2023-09-19T04:30:02;5.73;;;2.27;;
19664;SDS011;9980;51.020;7.772;2023-09-19T04:32:36;6.13;;;2.90;;
19664;SDS011;9980;51.020;7.772;2023-09-19T04:35:08;8.63;;;2.60;;
19664;SDS011;9980;51.020;7.772;2023-09-19T04:37:40;4.83;;;2.20;;
19664;SDS011;9980;51.020;7.772;2023-09-19T04:40:08;4.93;;;2.27;;
19664;SDS011;9980;51.020;7.772;2023-09-19T04:42:40;7.30;;;2.00;;
19664;SDS011;9980;51.020;7.772;2023-09-19T04:45:08;4.77;;;2.43;;
19664;SDS011;9980;51.020;7.772;2023-09-19T04:47:36;4.57;;;2.30;;
19664;SDS011;9980;51.020;7.772;2023-09-19T04:50:08;4.47;;;2.80;;
19664;SDS011;9980;51.020;7.772;2023-09-19T04:52:40;10.30;;;2.87;;
19664;SDS011;9980;51.020;7.772;2023-09-19T04:55:11;3.23;;;2.13;;
19664;SDS011;9980;51.020;7.772;2023-09-19T04:57:49;5.73;;;2.67;;
19664;SDS011;9980;51.020;7.772;2023-09-19T05:00:17;7.47;;;2.50;;
19664;SDS011;9980;51.020;7.772;2023-09-19T05:02:50;6.43;;;2.60;;
19664;SDS011;9980;51.020;7.772;2023-09-19T05:05:18;7.63;;;2.63;;
19664;SDS011;9980;51.020;7.772;2023-09-19T05:07:45;5.83;;;2.50;;
19664;SDS011;9980;51.020;7.772;2023-09-19T05:10:14;7.57;;;2.50;;
19664;SDS011;9980;51.020;7.772;2023-09-19T05:12:45;5.93;;;2.30;;
19664;SDS011;9980;51.020;7.772;2023-09-19T05:15:14;5.20;;;2.97;;
19664;SDS011;9980;51.020;7.772;2023-09-19T05:17:49;6.73;;;2.40;;
19664;SDS011;9980;51.020;7.772;2023-09-19T05:20:23;3.57;;;2.10;;
19664;SDS011;9980;51.020;7.772;2023-09-19T05:23:00;5.20;;;2.93;;
19664;SDS011;9980;51.020;7.772;2023-09-19T05:25:31;5.60;;;2.37;;
19664;SDS011;9980;51.020;7.772;2023-09-19T05:28:07;9.67;;;2.47;;
19664;SDS011;9980;51.020;7.772;2023-09-19T05:30:38;5.37;;;1.97;;
19664;SDS011;9980;51.020;7.772;2023-09-19T05:33:05;6.97;;;2.80;;
19664;SDS011;9980;51.020;7.772;2023-09-19T05:35:33;5.90;;;2.10;;
19664;SDS011;9980;51.020;7.772;2023-09-19T05:38:05;6.20;;;2.30;;
19664;SDS011;9980;51.020;7.772;2023-09-19T05:40:35;8.40;;;2.80;;
19664;SDS011;9980;51.020;7.772;2023-09-19T05:43:02;6.83;;;2.23;;
19664;SDS011;9980;51.020;7.772;2023-09-19T05:45:31;5.33;;;2.20;;
19664;SDS011;9980;51.020;7.772;2023-09-19T05:48:07;5.50;;;2.33;;
19664;SDS011;9980;51.020;7.772;2023-09-19T05:50:36;4.23;;;2.07;;
19664;SDS011;9980;51.020;7.772;2023-09-19T05:53:05;2.50;;;1.70;;
19664;SDS011;9980;51.020;7.772;2023-09-19T05:55:32;5.80;;;2.27;;
19664;SDS011;9980;51.020;7.772;2023-09-19T05:57:59;3.23;;;2.00;;
19664;SDS011;9980;51.020;7.772;2023-09-19T06:00:26;3.73;;;2.10;;
19664;SDS011;9980;51.020;7.772;2023-09-19T06:02:54;4.27;;;2.07;;
19664;SDS011;9980;51.020;7.772;2023-09-19T06:05:24;6.07;;;2.67;;
19664;SDS011;9980;51.020;7.772;2023-09-19T06:07:56;5.00;;;2.10;;
19664;SDS011;9980;51.020;7.772;2023-09-19T06:10:27;7.93;;;2.10;;
19664;SDS011;9980;51.020;7.772;2023-09-19T06:12:55;3.97;;;2.10;;
19664;SDS011;9980;51.020;7.772;2023-09-19T06:15:24;4.63;;;2.40;;
19664;SDS011;9980;51.020;7.772;2023-09-19T06:17:53;5.57;;;2.30;;
19664;SDS011;9980;51.020;7.772;2023-09-19T06:20:23;5.57;;;2.23;;
19664;SDS011;9980;51.020;7.772;2023-09-19T06:22:52;6.37;;;2.33;;
19664;SDS011;9980;51.020;7.772;2023-09-19T06:25:20;5.07;;;2.13;;
19664;SDS011;9980;51.020;7.772;2023-09-19T06:27:49;6.27;;;2.23;;
19664;SDS011;9980;51.020;7.772;2023-09-19T06:30:21;4.43;;;2.40;;
19664;SDS011;9980;51.020;7.772;2023-09-19T06:32:57;8.97;;;2.87;;
19664;SDS011;9980;51.020;7.772;2023-09-19T06:35:26;5.73;;;2.43;;
19664;SDS011;9980;51.020;7.772;2023-09-19T06:37:56;4.83;;;2.20;;
19664;SDS011;9980;51.020;7.772;2023-09-19T06:40:24;9.47;;;2.50;;
19664;SDS011;9980;51.020;7.772;2023-09-19T06:42:52;7.40;;;2.40;;
19664;SDS011;9980;51.020;7.772;2023-09-19T06:45:20;6.07;;;2.00;;
19664;SDS011;9980;51.020;7.772;2023-09-19T06:47:49;9.53;;;2.73;;
19664;SDS011;9980;51.020;7.772;2023-09-19T06:50:18;8.13;;;2.23;;
19664;SDS011;9980;51.020;7.772;2023-09-19T06:52:50;5.23;;;1.90;;
19664;SDS011;9980;51.020;7.772;2023-09-19T06:55:18;7.03;;;2.40;;
19664;SDS011;9980;51.020;7.772;2023-09-19T06:57:47;3.93;;;2.60;;
19664;SDS011;9980;51.020;7.772;2023-09-19T07:00:15;6.67;;;2.43;;
19664;SDS011;9980;51.020;7.772;2023-09-19T07:02:54;8.43;;;2.17;;
19664;SDS011;9980;51.020;7.772;2023-09-19T07:05:27;4.30;;;2.73;;
19664;SDS011;9980;51.020;7.772;2023-09-19T07:07:55;9.93;;;2.67;;
19664;SDS011;9980;51.020;7.772;2023-09-19T07:10:25;4.93;;;2.63;;
19664;SDS011;9980;51.020;7.772;2023-09-19T07:12:58;4.47;;;1.97;;
19664;SDS011;9980;51.020;7.772;2023-09-19T07:15:38;9.77;;;2.90;;
19664;SDS011;9980;51.020;7.772;2023-09-19T07:18:08;9.07;;;2.57;;
19664;SDS011;9980;51.020;7.772;2023-09-19T07:20:37;4.20;;;2.00;;
19664;SDS011;9980;51.020;7.772;2023-09-19T07:23:04;7.50;;;3.10;;
19664;SDS011;9980;51.020;7.772;2023-09-19T07:25:32;7.47;;;1.87;;
19664;SDS011;9980;51.020;7.772;2023-09-19T07:27:59;8.20;;;2.23;;
19664;SDS011;9980;51.020;7.772;2023-09-19T07:30:27;5.97;;;1.97;;
19664;SDS011;9980;51.020;7.772;2023-09-19T07:32:55;8.73;;;2.30;;
19664;SDS011;9980;51.020;7.772;2023-09-19T07:35:22;7.03;;;2.27;;
19664;SDS011;9980;51.020;7.772;2023-09-19T07:37:49;6.83;;;2.20;;
19664;SDS011;9980;51.020;7.772;2023-09-19T07:40:18;6.40;;;2.97;;
19664;SDS011;9980;51.020;7.772;2023-09-19T07:42:47;6.83;;;2.20;;
19664;SDS011;9980;51.020;7.772;2023-09-19T07:45:15;10.20;;;3.13;;
19664;SDS011;9980;51.020;7.772;2023-09-19T07:47:49;6.17;;;2.60;;
19664;SDS011;9980;51.020;7.772;2023-09-19T07:50:17;7.50;;;2.43;;
19664;SDS011;9980;51.020;7.772;2023-09-19T07:52:46;6.93;;;2.60;;
19664;SDS011;9980;51.020;7.772;2023-09-19T07:55:17;6.40;;;2.20;;
19664;SDS011;9980;51.020;7.772;2023-09-19T07:57:46;9.60;;;2.37;;
19664;SDS011;9980;51.020;7.772;2023-09-19T08:00:13;8.40;;;2.67;;
19664;SDS011;9980;51.020;7.772;2023-09-19T08:02:41;6.20;;;2.40;;
19664;SDS011;9980;51.020;7.772;2023-09-19T08:05:10;4.80;;;2.37;;
19664;SDS011;9980;51.020;7.772;2023-09-19T08:07:42;10.50;;;3.00;;
19664;SDS011;9980;51.020;7.772;2023-09-19T08:10:11;6.27;;;2.60;;
19664;SDS011;9980;51.020;7.772;2023-09-19T08:12:43;7.20;;;2.07;;
19664;SDS011;9980;51.020;7.772;2023-09-19T08:15:19;7.57;;;2.63;;
19664;SDS011;9980;51.020;7.772;2023-09-19T08:17:47;8.63;;;2.50;;
19664;SDS011;9980;51.020;7.772;2023-09-19T08:20:15;6.07;;;2.37;;
19664;SDS011;9980;51.020;7.772;2023-09-19T08:22:44;6.13;;;2.07;;
19664;SDS011;9980;51.020;7.772;2023-09-19T08:25:18;4.43;;;2.50;;
19664;SDS011;9980;51.020;7.772;2023-09-19T08:27:46;7.60;;;2.17;;
19664;SDS011;9980;51.020;7.772;2023-09-19T08:30:18;7.13;;;2.67;;
19664;SDS011;9980;51.020;7.772;2023-09-19T08:32:57;6.93;;;2.23;;
19664;SDS011;9980;51.020;7.772;2023-09-19T08:35:26;7.57;;;2.00;;
19664;SDS011;9980;51.020;7.772;2023-09-19T08:37:54;8.93;;;2.63;;
19664;SDS011;9980;51.020;7.772;2023-09-19T08:40:22;9.00;;;2.83;;
19664;SDS011;9980;51.020;7.772;2023-09-19T08:42:50;7.13;;;2.07;;
19664;SDS011;9980;51.020;7.772;2023-09-19T08:45:20;6.87;;;2.30;;
19664;SDS011;9980;51.020;7.772;2023-09-19T08:50:51;4.30;;;2.00;;
19664;SDS011;9980;51.020;7.772;2023-09-19T08:53:42;7.00;;;2.80;;
19664;SDS011;9980;51.020;7.772;2023-09-19T08:56:18;9.97;;;2.30;;
19664;SDS011;9980;51.020;7.772;2023-09-19T08:58:53;8.77;;;2.80;;
19664;SDS011;9980;51.020;7.772;2023-09-19T09:01:28;6.33;;;2.97;;
19664;SDS011;9980;51.020;7.772;2023-09-19T09:03:58;8.73;;;2.00;;
19664;SDS011;9980;51.020;7.772;2023-09-19T09:06:28;7.27;;;2.60;;
19664;SDS011;9980;51.020;7.772;2023-09-19T09:08:58;10.03;;;2.63;;
19664;SDS011;9980;51.020;7.772;2023-09-19T09:11:26;9.27;;;2.70;;
19664;SDS011;9980;51.020;7.772;2023-09-19T09:13:54;6.80;;;2.40;;
19664;SDS011;9980;51.020;7.772;2023-09-19T09:16:22;6.80;;;2.23;;
19664;SDS011;9980;51.020;7.772;2023-09-19T09:18:52;6.33;;;2.40;;
19664;SDS011;9980;51.020;7.772;2023-09-19T09:21:21;6.43;;;2.43;;
19664;SDS011;9980;51.020;7.772;2023-09-19T09:23:51;6.07;;;2.43;;
19664;SDS011;9980;51.020;7.772;2023-09-19T09:29:16;3.70;;;2.00;;
19664;SDS011;9980;51.020;7.772;2023-09-19T09:35:08;4.60;;;2.57;;
19664;SDS011;9980;51.020;7.772;2023-09-19T09:37:36;10.33;;;2.43;;
19664;SDS011;9980;51.020;7.772;2023-09-19T09:40:05;7.07;;;2.13;;
19664;SDS011;9980;51.020;7.772;2023-09-19T09:42:41;5.40;;;2.40;;
19664;SDS011;9980;51.020;7.772;2023-09-19T09:47:55;5.47;;;2.03;;
19664;SDS011;9980;51.020;7.772;2023-09-19T09:53:22;6.90;;;2.23;;
19664;SDS011;9980;51.020;7.772;2023-09-19T09:55:57;7.07;;;2.33;;
19664;SDS011;9980;51.020;7.772;2023-09-19T09:58:27;4.07;;;2.13;;
19664;SDS011;9980;51.020;7.772;2023-09-19T10:00:59;5.70;;;2.30;;
19664;SDS011;9980;51.020;7.772;2023-09-19T10:03:32;6.90;;;2.30;;
19664;SDS011;9980;51.020;7.772;2023-09-19T10:06:10;4.13;;;1.70;;
19664;SDS011;9980;51.020;7.772;2023-09-19T10:09:07;7.07;;;2.17;;
19664;SDS011;9980;51.020;7.772;2023-09-19T10:14:12;3.43;;;2.00;;
19664;SDS011;9980;51.020;7.772;2023-09-19T10:16:46;5.77;;;2.27;;
19664;SDS011;9980;51.020;7.772;2023-09-19T10:19:27;8.90;;;2.37;;
19664;SDS011;9980;51.020;7.772;2023-09-19T10:22:32;5.27;;;2.07;;
19664;SDS011;9980;51.020;7.772;2023-09-19T10:25:02;5.23;;;1.60;;
19664;SDS011;9980;51.020;7.772;2023-09-19T10:27:33;3.93;;;2.03;;
19664;SDS011;9980;51.020;7.772;2023-09-19T10:30:07;7.37;;;2.77;;
19664;SDS011;9980;51.020;7.772;2023-09-19T10:32:37;5.87;;;2.20;;
19664;SDS011;9980;51.020;7.772;2023-09-19T10:35:08;5.93;;;2.23;;
19664;SDS011;9980;51.020;7.772;2023-09-19T10:37:39;3.10;;;1.70;;
19664;SDS011;9980;51.020;7.772;2023-09-19T10:40:07;4.93;;;2.20;;
19664;SDS011;9980;51.020;7.772;2023-09-19T10:42:35;5.93;;;2.03;;
19664;SDS011;9980;51.020;7.772;2023-09-19T10:45:08;5.17;;;1.67;;
19664;SDS011;9980;51.020;7.772;2023-09-19T10:47:39;3.33;;;1.60;;
19664;SDS011;9980;51.020;7.772;2023-09-19T10:50:06;6.17;;;1.97;;
19664;SDS011;9980;51.020;7.772;2023-09-19T10:52:37;5.90;;;1.90;;
19664;SDS011;9980;51.020;7.772;2023-09-19T10:55:08;5.10;;;2.33;;
19664;SDS011;9980;51.020;7.772;2023-09-19T10:57:43;6.00;;;1.90;;
19664;SDS011;9980;51.020;7.772;2023-09-19T11:00:13;4.83;;;1.80;;
19664;SDS011;9980;51.020;7.772;2023-09-19T11:05:59;3.80;;;1.97;;
19664;SDS011;9980;51.020;7.772;2023-09-19T11:08:50;5.77;;;2.47;;
19664;SDS011;9980;51.020;7.772;2023-09-19T11:30:46;5.27;;;1.90;;
19664;SDS011;9980;51.020;7.772;2023-09-19T11:33:19;2.57;;;1.63;;
19664;SDS011;9980;51.020;7.772;2023-09-19T11:36:09;3.27;;;1.73;;
19664;SDS011;9980;51.020;7.772;2023-09-19T11:46:27;4.60;;;1.73;;
19664;SDS011;9980;51.020;7.772;2023-09-19T11:48:54;3.77;;;1.97;;
19664;SDS011;9980;51.020;7.772;2023-09-19T11:51:39;3.97;;;2.10;;
19664;SDS011;9980;51.020;7.772;2023-09-19T11:54:11;9.00;;;1.83;;
19664;SDS011;9980;51.020;7.772;2023-09-19T11:56:44;2.90;;;1.70;;
19664;SDS011;9980;51.020;7.772;2023-09-19T11:59:19;3.50;;;1.67;;
19664;SDS011;9980;51.020;7.772;2023-09-19T12:01:55;5.40;;;2.00;;
19664;SDS011;9980;51.020;7.772;2023-09-19T12:04:38;4.60;;;2.07;;
19664;SDS011;9980;51.020;7.772;2023-09-19T12:07:10;4.63;;;2.00;;
19664;SDS011;9980;51.020;7.772;2023-09-19T12:09:44;4.47;;;2.00;;
19664;SDS011;9980;51.020;7.772;2023-09-19T12:12:20;3.80;;;1.73;;
19664;SDS011;9980;51.020;7.772;2023-09-19T12:14:50;5.30;;;1.70;;
19664;SDS011;9980;51.020;7.772;2023-09-19T12:17:17;3.60;;;1.83;;
19664;SDS011;9980;51.020;7.772;2023-09-19T12:19:55;5.13;;;1.70;;
19664;SDS011;9980;51.020;7.772;2023-09-19T12:22:23;5.00;;;1.90;;
19664;SDS011;9980;51.020;7.772;2023-09-19T12:24:51;2.87;;;1.80;;
19664;SDS011;9980;51.020;7.772;2023-09-19T12:27:20;4.20;;;1.73;;
19664;SDS011;9980;51.020;7.772;2023-09-19T12:29:48;5.77;;;1.83;;
19664;SDS011;9980;51.020;7.772;2023-09-19T12:32:16;3.17;;;1.90;;
19664;SDS011;9980;51.020;7.772;2023-09-19T12:34:52;5.40;;;2.00;;
19664;SDS011;9980;51.020;7.772;2023-09-19T12:37:21;10.70;;;2.20;;
19664;SDS011;9980;51.020;7.772;2023-09-19T12:39:50;6.40;;;1.93;;
19664;SDS011;9980;51.020;7.772;2023-09-19T12:42:23;3.97;;;2.03;;
19664;SDS011;9980;51.020;7.772;2023-09-19T12:44:59;4.53;;;1.80;;
19664;SDS011;9980;51.020;7.772;2023-09-19T12:47:27;4.87;;;1.73;;
19664;SDS011;9980;51.020;7.772;2023-09-19T12:50:05;4.63;;;2.17;;
19664;SDS011;9980;51.020;7.772;2023-09-19T12:52:46;3.73;;;2.07;;
19664;SDS011;9980;51.020;7.772;2023-09-19T12:55:19;5.63;;;1.70;;
19664;SDS011;9980;51.020;7.772;2023-09-19T12:57:59;5.53;;;1.90;;
19664;SDS011;9980;51.020;7.772;2023-09-19T13:00:34;3.23;;;1.80;;
19664;SDS011;9980;51.020;7.772;2023-09-19T13:05:55;6.10;;;1.70;;
19664;SDS011;9980;51.020;7.772;2023-09-19T13:11:12;2.90;;;1.90;;
19664;SDS011;9980;51.020;7.772;2023-09-19T13:14:01;3.63;;;1.90;;
19664;SDS011;9980;51.020;7.772;2023-09-19T13:16:54;3.15;;;1.52;;
19664;SDS011;9980;51.020;7.772;2023-09-19T13:19:51;3.90;;;1.98;;
19664;SDS011;9980;51.020;7.772;2023-09-19T13:22:36;3.85;;;1.35;;
19664;SDS011;9980;51.020;7.772;2023-09-19T13:25:10;2.95;;;1.77;;
19664;SDS011;9980;51.020;7.772;2023-09-19T13:27:52;5.73;;;1.70;;
19664;SDS011;9980;51.020;7.772;2023-09-19T13:30:23;6.90;;;2.00;;
19664;SDS011;9980;51.020;7.772;2023-09-19T13:32:52;4.30;;;1.80;;
19664;SDS011;9980;51.020;7.772;2023-09-19T13:35:33;4.40;;;1.70;;
19664;SDS011;9980;51.020;7.772;2023-09-19T13:38:00;5.38;;;1.50;;
19664;SDS011;9980;51.020;7.772;2023-09-19T13:40:27;4.93;;;1.70;;
19664;SDS011;9980;51.020;7.772;2023-09-19T13:42:57;3.33;;;1.60;;
19664;SDS011;9980;51.020;7.772;2023-09-19T13:45:25;5.93;;;1.97;;
19664;SDS011;9980;51.020;7.772;2023-09-19T13:47:56;2.97;;;1.52;;
19664;SDS011;9980;51.020;7.772;2023-09-19T13:50:25;4.43;;;1.80;;
19664;SDS011;9980;51.020;7.772;2023-09-19T13:52:55;3.80;;;1.65;;
19664;SDS011;9980;51.020;7.772;2023-09-19T13:55:22;4.55;;;1.70;;
19664;SDS011;9980;51.020;7.772;2023-09-19T13:57:49;6.32;;;1.83;;
19664;SDS011;9980;51.020;7.772;2023-09-19T14:00:18;4.53;;;1.75;;
19664;SDS011;9980;51.020;7.772;2023-09-19T14:02:45;2.20;;;1.60;;
19664;SDS011;9980;51.020;7.772;2023-09-19T14:05:15;4.90;;;1.75;;
19664;SDS011;9980;51.020;7.772;2023-09-19T14:07:43;2.83;;;1.58;;
19664;SDS011;9980;51.020;7.772;2023-09-19T14:10:11;2.53;;;1.40;;
19664;SDS011;9980;51.020;7.772;2023-09-19T14:12:38;3.65;;;1.80;;
19664;SDS011;9980;51.020;7.772;2023-09-19T14:15:08;4.50;;;1.65;;
19664;SDS011;9980;51.020;7.772;2023-09-19T14:17:37;2.83;;;1.25;;
19664;SDS011;9980;51.020;7.772;2023-09-19T14:20:06;2.27;;;1.37;;
19664;SDS011;9980;51.020;7.772;2023-09-19T14:22:37;3.30;;;1.63;;
19664;SDS011;9980;51.020;7.772;2023-09-19T14:25:04;6.53;;;1.60;;
19664;SDS011;9980;51.020;7.772;2023-09-19T14:27:32;3.57;;;1.77;;
19664;SDS011;9980;51.020;7.772;2023-09-19T14:29:59;3.90;;;1.43;;
19664;SDS011;9980;51.020;7.772;2023-09-19T14:32:25;3.13;;;1.40;;
19664;SDS011;9980;51.020;7.772;2023-09-19T14:34:52;4.03;;;1.30;;
19664;SDS011;9980;51.020;7.772;2023-09-19T14:37:19;3.20;;;1.20;;
19664;SDS011;9980;51.020;7.772;2023-09-19T14:39:47;3.13;;;1.30;;
19664;SDS011;9980;51.020;7.772;2023-09-19T14:42:14;3.67;;;1.20;;
19664;SDS011;9980;51.020;7.772;2023-09-19T14:44:44;6.07;;;1.27;;
19664;SDS011;9980;51.020;7.772;2023-09-19T14:47:11;3.10;;;1.33;;
19664;SDS011;9980;51.020;7.772;2023-09-19T14:49:40;2.17;;;1.50;;
19664;SDS011;9980;51.020;7.772;2023-09-19T14:52:07;2.57;;;1.17;;
19664;SDS011;9980;51.020;7.772;2023-09-19T14:54:36;1.33;;;1.10;;
19664;SDS011;9980;51.020;7.772;2023-09-19T14:57:08;3.77;;;1.00;;
19664;SDS011;9980;51.020;7.772;2023-09-19T14:59:35;2.27;;;1.40;;
19664;SDS011;9980;51.020;7.772;2023-09-19T15:02:06;2.57;;;1.13;;
19664;SDS011;9980;51.020;7.772;2023-09-19T15:04:33;2.90;;;1.20;;
19664;SDS011;9980;51.020;7.772;2023-09-19T15:07:01;1.93;;;1.10;;
19664;SDS011;9980;51.020;7.772;2023-09-19T15:09:28;4.33;;;1.17;;
19664;SDS011;9980;51.020;7.772;2023-09-19T15:11:58;1.33;;;1.00;;
19664;SDS011;9980;51.020;7.772;2023-09-19T15:14:25;1.83;;;1.10;;
19664;SDS011;9980;51.020;7.772;2023-09-19T15:16:52;2.80;;;1.17;;
19664;SDS011;9980;51.020;7.772;2023-09-19T15:19:19;2.47;;;1.50;;
19664;SDS011;9980;51.020;7.772;2023-09-19T15:21:48;3.40;;;1.13;;
19664;SDS011;9980;51.020;7.772;2023-09-19T15:24:15;2.63;;;1.27;;
19664;SDS011;9980;51.020;7.772;2023-09-19T15:26:43;2.47;;;1.20;;
19664;SDS011;9980;51.020;7.772;2023-09-19T15:29:11;4.43;;;1.40;;
19664;SDS011;9980;51.020;7.772;2023-09-19T15:31:39;1.83;;;1.10;;
19664;SDS011;9980;51.020;7.772;2023-09-19T15:34:07;2.50;;;1.10;;
19664;SDS011;9980;51.020;7.772;2023-09-19T15:36:35;2.20;;;1.03;;
19664;SDS011;9980;51.020;7.772;2023-09-19T15:39:06;4.43;;;1.20;;
19664;SDS011;9980;51.020;7.772;2023-09-19T15:41:40;2.37;;;1.20;;
19664;SDS011;9980;51.020;7.772;2023-09-19T15:44:11;3.13;;;1.30;;
19664;SDS011;9980;51.020;7.772;2023-09-19T15:46:44;5.90;;;1.90;;
19664;SDS011;9980;51.020;7.772;2023-09-19T15:49:11;3.03;;;1.30;;
19664;SDS011;9980;51.020;7.772;2023-09-19T15:51:39;2.60;;;1.47;;
19664;SDS011;9980;51.020;7.772;2023-09-19T15:56:42;2.73;;;1.50;;
19664;SDS011;9980;51.020;7.772;2023-09-19T15:59:10;2.10;;;1.10;;
19664;SDS011;9980;51.020;7.772;2023-09-19T16:01:41;2.23;;;1.00;;
19664;SDS011;9980;51.020;7.772;2023-09-19T16:04:10;3.57;;;1.40;;
19664;SDS011;9980;51.020;7.772;2023-09-19T16:06:39;9.07;;;1.40;;
19664;SDS011;9980;51.020;7.772;2023-09-19T16:09:08;4.30;;;1.30;;
19664;SDS011;9980;51.020;7.772;2023-09-19T16:11:36;1.93;;;1.03;;
19664;SDS011;9980;51.020;7.772;2023-09-19T16:14:04;3.90;;;1.30;;
19664;SDS011;9980;51.020;7.772;2023-09-19T16:16:32;1.53;;;1.20;;
19664;SDS011;9980;51.020;7.772;2023-09-19T16:19:02;2.30;;;1.30;;
19664;SDS011;9980;51.020;7.772;2023-09-19T16:21:33;3.63;;;1.23;;
19664;SDS011;9980;51.020;7.772;2023-09-19T16:24:02;2.20;;;1.27;;
19664;SDS011;9980;51.020;7.772;2023-09-19T16:26:33;2.77;;;1.20;;
19664;SDS011;9980;51.020;7.772;2023-09-19T16:29:00;1.80;;;1.30;;